sensor_id;sensor_type;location;lat;lon;timestamp;pressure;altitude;pressure_sealevel;temperature;humidity
41862;BME280;27537;57.134;-2.136;2023-10-09T00:02:09;100982.59;;;12.47;100.00
41862;BME280;27537;57.134;-2.136;2023-10-09T00:04:39;100969.59;;;12.44;100.00
41862;BME280;27537;57.134;-2.136;2023-10-09T00:07:09;100990.97;;;12.57;100.00
41862;BME280;27537;57.134;-2.136;2023-10-09T00:09:38;100979.59;;;12.57;100.00
41862;BME280;27537;57.134;-2.136;2023-10-09T00:12:19;100980.47;;;12.57;100.00
41862;BME280;27537;57.134;-2.136;2023-10-09T00:14:50;100988.41;;;12.56;100.00
41862;BME280;27537;57.134;-2.136;2023-10-09T00:17:17;100994.91;;;12.67;100.00
41862;BME280;27537;57.134;-2.136;2023-10-09T00:19:49;100987.34;;;12.60;100.00
41862;BME280;27537;57.134;-2.136;2023-10-09T00:22:16;100980.91;;;12.67;100.00
41862;BME280;27537;57.134;-2.136;2023-10-09T00:24:53;100984.88;;;12.77;100.00
41862;BME280;27537;57.134;-2.136;2023-10-09T00:27:40;100991.91;;;12.77;100.00
41862;BME280;27537;57.134;-2.136;2023-10-09T00:30:14;100990.97;;;12.78;100.00
41862;BME280;27537;57.134;-2.136;2023-10-09T00:32:45;100987.22;;;12.83;100.00
41862;BME280;27537;57.134;-2.136;2023-10-09T00:35:36;100993.13;;;12.88;100.00
41862;BME280;27537;57.134;-2.136;2023-10-09T00:38:07;100999.09;;;12.92;100.00
41862;BME280;27537;57.134;-2.136;2023-10-09T00:40:47;101006.81;;;12.97;100.00
41862;BME280;27537;57.134;-2.136;2023-10-09T00:43:22;100997.34;;;12.93;100.00
41862;BME280;27537;57.134;-2.136;2023-10-09T00:46:00;100994.72;;;12.93;100.00
41862;BME280;27537;57.134;-2.136;2023-10-09T00:48:38;100989.66;;;12.88;100.00
41862;BME280;27537;57.134;-2.136;2023-10-09T00:51:08;100990.56;;;12.87;100.00
41862;BME280;27537;57.134;-2.136;2023-10-09T00:53:48;100978.50;;;12.83;100.00
41862;BME280;27537;57.134;-2.136;2023-10-09T00:56:19;100976.78;;;12.82;100.00
41862;BME280;27537;57.134;-2.136;2023-10-09T00:58:58;100976.94;;;12.79;100.00
41862;BME280;27537;57.134;-2.136;2023-10-09T01:01:33;100974.59;;;12.71;100.00
41862;BME280;27537;57.134;-2.136;2023-10-09T01:04:15;100961.81;;;12.63;100.00
41862;BME280;27537;57.134;-2.136;2023-10-09T01:06:46;100965.56;;;12.58;100.00
41862;BME280;27537;57.134;-2.136;2023-10-09T01:09:34;100977.09;;;12.53;100.00
41862;BME280;27537;57.134;-2.136;2023-10-09T01:12:05;100976.44;;;12.48;100.00
41862;BME280;27537;57.134;-2.136;2023-10-09T01:14:32;100981.09;;;12.42;100.00
41862;BME280;27537;57.134;-2.136;2023-10-09T01:17:08;100990.00;;;12.38;100.00
41862;BME280;27537;57.134;-2.136;2023-10-09T01:19:36;100997.88;;;12.38;100.00
41862;BME280;27537;57.134;-2.136;2023-10-09T01:22:03;100989.41;;;12.31;100.00
41862;BME280;27537;57.134;-2.136;2023-10-09T01:24:42;100999.25;;;12.26;100.00
41862;BME280;27537;57.134;-2.136;2023-10-09T01:27:10;100982.16;;;12.15;100.00
41862;BME280;27537;57.134;-2.136;2023-10-09T01:29:43;101003.50;;;12.28;100.00
41862;BME280;27537;57.134;-2.136;2023-10-09T01:32:13;100995.63;;;12.28;100.00
41862;BME280;27537;57.134;-2.136;2023-10-09T01:34:46;100992.16;;;12.28;100.00
41862;BME280;27537;57.134;-2.136;2023-10-09T01:37:19;100991.91;;;12.34;100.00
41862;BME280;27537;57.134;-2.136;2023-10-09T01:39:54;100986.72;;;12.32;100.00
41862;BME280;27537;57.134;-2.136;2023-10-09T01:42:46;100955.19;;;12.12;100.00
41862;BME280;27537;57.134;-2.136;2023-10-09T01:45:13;100996.84;;;12.42;100.00
41862;BME280;27537;57.134;-2.136;2023-10-09T01:47:46;101004.28;;;12.52;100.00
41862;BME280;27537;57.134;-2.136;2023-10-09T01:50:18;100995.06;;;12.42;100.00
41862;BME280;27537;57.134;-2.136;2023-10-09T01:52:58;101010.44;;;12.51;100.00
41862;BME280;27537;57.134;-2.136;2023-10-09T01:55:30;100996.34;;;12.54;100.00
41862;BME280;27537;57.134;-2.136;2023-10-09T01:58:07;100999.03;;;12.52;100.00
41862;BME280;27537;57.134;-2.136;2023-10-09T02:00:49;100999.63;;;12.59;100.00
41862;BME280;27537;57.134;-2.136;2023-10-09T02:03:23;100991.81;;;12.58;100.00
41862;BME280;27537;57.134;-2.136;2023-10-09T02:05:52;100982.88;;;12.62;100.00
41862;BME280;27537;57.134;-2.136;2023-10-09T02:08:44;100987.00;;;12.67;100.00
41862;BME280;27537;57.134;-2.136;2023-10-09T02:11:16;100990.13;;;12.77;100.00
41862;BME280;27537;57.134;-2.136;2023-10-09T02:14:05;100985.53;;;12.82;100.00
41862;BME280;27537;57.134;-2.136;2023-10-09T02:16:47;100981.25;;;12.80;100.00
41862;BME280;27537;57.134;-2.136;2023-10-09T02:19:29;100972.63;;;12.76;100.00
41862;BME280;27537;57.134;-2.136;2023-10-09T02:22:04;100980.13;;;12.85;100.00
41862;BME280;27537;57.134;-2.136;2023-10-09T02:24:40;100984.41;;;12.88;100.00
41862;BME280;27537;57.134;-2.136;2023-10-09T02:27:19;100987.88;;;12.88;100.00
41862;BME280;27537;57.134;-2.136;2023-10-09T02:30:04;100987.88;;;12.88;100.00
41862;BME280;27537;57.134;-2.136;2023-10-09T02:32:46;100992.09;;;12.93;100.00
41862;BME280;27537;57.134;-2.136;2023-10-09T02:35:19;100985.91;;;12.94;100.00
41862;BME280;27537;57.134;-2.136;2023-10-09T02:37:57;100982.09;;;13.01;100.00
41862;BME280;27537;57.134;-2.136;2023-10-09T02:40:28;100975.44;;;12.92;100.00
41862;BME280;27537;57.134;-2.136;2023-10-09T02:42:59;100981.31;;;12.99;100.00
41862;BME280;27537;57.134;-2.136;2023-10-09T02:45:26;100970.97;;;12.94;100.00
41862;BME280;27537;57.134;-2.136;2023-10-09T02:47:59;100989.56;;;13.10;100.00
41862;BME280;27537;57.134;-2.136;2023-10-09T02:50:26;100989.84;;;13.04;100.00
41862;BME280;27537;57.134;-2.136;2023-10-09T02:52:55;100989.78;;;13.05;100.00
41862;BME280;27537;57.134;-2.136;2023-10-09T02:55:27;100980.97;;;13.06;100.00
41862;BME280;27537;57.134;-2.136;2023-10-09T02:57:54;100969.78;;;13.01;100.00
41862;BME280;27537;57.134;-2.136;2023-10-09T03:00:37;100970.78;;;12.99;100.00
41862;BME280;27537;57.134;-2.136;2023-10-09T03:03:04;100986.28;;;13.05;100.00
41862;BME280;27537;57.134;-2.136;2023-10-09T03:05:35;100979.47;;;13.01;100.00
41862;BME280;27537;57.134;-2.136;2023-10-09T03:08:04;100984.72;;;13.01;100.00
41862;BME280;27537;57.134;-2.136;2023-10-09T03:10:31;100990.19;;;12.96;100.00
41862;BME280;27537;57.134;-2.136;2023-10-09T03:13:00;100986.84;;;12.93;100.00
41862;BME280;27537;57.134;-2.136;2023-10-09T03:15:29;100986.84;;;12.93;100.00
41862;BME280;27537;57.134;-2.136;2023-10-09T03:18:02;100991.22;;;12.92;100.00
41862;BME280;27537;57.134;-2.136;2023-10-09T03:20:31;100985.31;;;12.87;100.00
41862;BME280;27537;57.134;-2.136;2023-10-09T03:22:58;100986.66;;;12.77;100.00
41862;BME280;27537;57.134;-2.136;2023-10-09T03:25:27;100999.91;;;12.73;100.00
41862;BME280;27537;57.134;-2.136;2023-10-09T03:27:54;101001.69;;;12.73;100.00
41862;BME280;27537;57.134;-2.136;2023-10-09T03:30:25;100969.34;;;12.50;100.00
41862;BME280;27537;57.134;-2.136;2023-10-09T03:32:52;101010.66;;;12.67;100.00
41862;BME280;27537;57.134;-2.136;2023-10-09T03:35:21;101013.03;;;12.73;100.00
41862;BME280;27537;57.134;-2.136;2023-10-09T03:37:56;101005.22;;;12.72;100.00
41862;BME280;27537;57.134;-2.136;2023-10-09T03:40:24;101010.41;;;12.73;100.00
41862;BME280;27537;57.134;-2.136;2023-10-09T03:42:51;101009.25;;;12.81;100.00
41862;BME280;27537;57.134;-2.136;2023-10-09T03:45:22;101009.34;;;12.78;100.00
41862;BME280;27537;57.134;-2.136;2023-10-09T03:47:56;101019.81;;;12.79;100.00
41862;BME280;27537;57.134;-2.136;2023-10-09T03:50:38;101018.03;;;12.80;100.00
41862;BME280;27537;57.134;-2.136;2023-10-09T03:53:05;100998.25;;;12.71;100.00
41862;BME280;27537;57.134;-2.136;2023-10-09T03:55:39;101007.78;;;12.73;100.00
41862;BME280;27537;57.134;-2.136;2023-10-09T03:58:06;101014.22;;;12.87;100.00
41862;BME280;27537;57.134;-2.136;2023-10-09T04:00:33;101019.75;;;12.81;100.00
41862;BME280;27537;57.134;-2.136;2023-10-09T04:03:12;101025.50;;;12.89;100.00
41862;BME280;27537;57.134;-2.136;2023-10-09T04:05:42;101031.66;;;12.89;100.00
41862;BME280;27537;57.134;-2.136;2023-10-09T04:08:11;101036.63;;;12.96;100.00
41862;BME280;27537;57.134;-2.136;2023-10-09T04:10:46;101035.31;;;13.06;100.00
41862;BME280;27537;57.134;-2.136;2023-10-09T04:13:23;101033.22;;;13.14;100.00
41862;BME280;27537;57.134;-2.136;2023-10-09T04:16:02;101033.94;;;13.18;100.00
41862;BME280;27537;57.134;-2.136;2023-10-09T04:18:37;101028.53;;;13.21;100.00
41862;BME280;27537;57.134;-2.136;2023-10-09T04:21:06;101028.63;;;13.19;100.00
41862;BME280;27537;57.134;-2.136;2023-10-09T04:23:46;101031.91;;;13.24;100.00
41862;BME280;27537;57.134;-2.136;2023-10-09T04:26:40;101041.28;;;13.30;100.00
41862;BME280;27537;57.134;-2.136;2023-10-09T04:29:14;101037.34;;;13.20;100.00
41862;BME280;27537;57.134;-2.136;2023-10-09T04:31:57;101033.00;;;13.19;100.00
41862;BME280;27537;57.134;-2.136;2023-10-09T04:34:27;101042.41;;;13.24;100.00
41862;BME280;27537;57.134;-2.136;2023-10-09T04:36:57;101049.38;;;13.25;100.00
41862;BME280;27537;57.134;-2.136;2023-10-09T04:39:28;101046.03;;;13.22;100.00
41862;BME280;27537;57.134;-2.136;2023-10-09T04:41:58;101055.69;;;13.21;100.00
41862;BME280;27537;57.134;-2.136;2023-10-09T04:44:43;101054.50;;;13.28;100.00
41862;BME280;27537;57.134;-2.136;2023-10-09T04:47:38;101058.91;;;13.28;100.00
41862;BME280;27537;57.134;-2.136;2023-10-09T04:50:16;101059.88;;;13.25;100.00
41862;BME280;27537;57.134;-2.136;2023-10-09T04:52:45;101056.47;;;13.23;100.00
41862;BME280;27537;57.134;-2.136;2023-10-09T04:55:18;101068.44;;;13.30;100.00
41862;BME280;27537;57.134;-2.136;2023-10-09T04:57:51;101063.78;;;13.17;100.00
41862;BME280;27537;57.134;-2.136;2023-10-09T05:00:36;101067.00;;;13.23;100.00
41862;BME280;27537;57.134;-2.136;2023-10-09T05:03:23;101080.97;;;13.24;100.00
41862;BME280;27537;57.134;-2.136;2023-10-09T05:06:06;101084.28;;;13.29;100.00
41862;BME280;27537;57.134;-2.136;2023-10-09T05:09:09;101079.34;;;13.21;100.00
41862;BME280;27537;57.134;-2.136;2023-10-09T05:11:35;101090.78;;;13.20;100.00
41862;BME280;27537;57.134;-2.136;2023-10-09T05:14:21;101101.13;;;13.25;100.00
41862;BME280;27537;57.134;-2.136;2023-10-09T05:16:54;101108.75;;;13.31;100.00
41862;BME280;27537;57.134;-2.136;2023-10-09T05:19:22;101111.41;;;13.29;100.00
41862;BME280;27537;57.134;-2.136;2023-10-09T05:22:00;101103.69;;;13.26;100.00
41862;BME280;27537;57.134;-2.136;2023-10-09T05:24:34;101107.41;;;13.21;100.00
41862;BME280;27537;57.134;-2.136;2023-10-09T05:27:13;101117.72;;;13.25;100.00
41862;BME280;27537;57.134;-2.136;2023-10-09T05:29:51;101124.41;;;13.34;100.00
41862;BME280;27537;57.134;-2.136;2023-10-09T05:32:39;101114.91;;;13.30;100.00
41862;BME280;27537;57.134;-2.136;2023-10-09T05:35:15;101124.47;;;13.33;100.00
41862;BME280;27537;57.134;-2.136;2023-10-09T05:37:56;101127.09;;;13.33;100.00
41862;BME280;27537;57.134;-2.136;2023-10-09T05:40:30;101132.31;;;13.34;100.00
41862;BME280;27537;57.134;-2.136;2023-10-09T05:42:57;101133.09;;;13.36;100.00
41862;BME280;27537;57.134;-2.136;2023-10-09T05:45:26;101128.31;;;13.24;100.00
41862;BME280;27537;57.134;-2.136;2023-10-09T05:48:12;101139.19;;;13.37;100.00
41862;BME280;27537;57.134;-2.136;2023-10-09T05:50:39;101149.59;;;13.40;100.00
41862;BME280;27537;57.134;-2.136;2023-10-09T05:53:26;101146.13;;;13.39;100.00
41862;BME280;27537;57.134;-2.136;2023-10-09T05:56:13;101141.19;;;13.32;100.00
41862;BME280;27537;57.134;-2.136;2023-10-09T05:59:12;101152.28;;;13.38;100.00
41862;BME280;27537;57.134;-2.136;2023-10-09T06:01:57;101148.75;;;13.39;100.00
41862;BME280;27537;57.134;-2.136;2023-10-09T06:04:23;101156.44;;;13.44;100.00
41862;BME280;27537;57.134;-2.136;2023-10-09T06:07:09;101153.09;;;13.40;100.00
41862;BME280;27537;57.134;-2.136;2023-10-09T06:09:40;101160.22;;;13.37;100.00
41862;BME280;27537;57.134;-2.136;2023-10-09T06:12:17;101159.44;;;13.35;100.00
41862;BME280;27537;57.134;-2.136;2023-10-09T06:15:00;101164.59;;;13.38;100.00
41862;BME280;27537;57.134;-2.136;2023-10-09T06:17:58;101170.75;;;13.37;100.00
41862;BME280;27537;57.134;-2.136;2023-10-09T06:20:45;101159.59;;;13.32;100.00
41862;BME280;27537;57.134;-2.136;2023-10-09T06:23:30;101175.03;;;13.39;100.00
41862;BME280;27537;57.134;-2.136;2023-10-09T06:26:15;101165.44;;;13.38;100.00
41862;BME280;27537;57.134;-2.136;2023-10-09T06:28:51;101169.72;;;13.41;100.00
41862;BME280;27537;57.134;-2.136;2023-10-09T06:31:38;101162.81;;;13.38;100.00
41862;BME280;27537;57.134;-2.136;2023-10-09T06:34:27;101165.44;;;13.38;100.00
41862;BME280;27537;57.134;-2.136;2023-10-09T06:37:02;101162.84;;;13.37;100.00
41862;BME280;27537;57.134;-2.136;2023-10-09T06:39:55;101158.75;;;13.29;100.00
41862;BME280;27537;57.134;-2.136;2023-10-09T06:42:26;101149.56;;;13.19;100.00
41862;BME280;27537;57.134;-2.136;2023-10-09T06:45:07;101164.94;;;13.28;100.00
41862;BME280;27537;57.134;-2.136;2023-10-09T06:47:41;101166.63;;;13.29;100.00
41862;BME280;27537;57.134;-2.136;2023-10-09T06:50:11;101166.78;;;13.26;100.00
41862;BME280;27537;57.134;-2.136;2023-10-09T06:52:47;101175.38;;;13.32;100.00
41862;BME280;27537;57.134;-2.136;2023-10-09T06:55:24;101172.78;;;13.30;100.00
41862;BME280;27537;57.134;-2.136;2023-10-09T06:58:18;101183.13;;;13.35;100.00
41862;BME280;27537;57.134;-2.136;2023-10-09T07:00:55;101191.16;;;13.32;100.00
41862;BME280;27537;57.134;-2.136;2023-10-09T07:03:26;101196.16;;;13.38;100.00
41862;BME280;27537;57.134;-2.136;2023-10-09T07:06:06;101191.78;;;13.37;100.00
41862;BME280;27537;57.134;-2.136;2023-10-09T07:08:55;101201.47;;;13.36;100.00
41862;BME280;27537;57.134;-2.136;2023-10-09T07:11:35;101203.19;;;13.37;100.00
41862;BME280;27537;57.134;-2.136;2023-10-09T07:14:15;101198.72;;;13.39;100.00
41862;BME280;27537;57.134;-2.136;2023-10-09T07:17:04;101203.78;;;13.44;100.00
41862;BME280;27537;57.134;-2.136;2023-10-09T07:19:43;101205.75;;;13.39;100.00
41862;BME280;27537;57.134;-2.136;2023-10-09T07:22:11;101209.28;;;13.38;100.00
41862;BME280;27537;57.134;-2.136;2023-10-09T07:24:53;101208.38;;;13.39;100.00
41862;BME280;27537;57.134;-2.136;2023-10-09T07:27:26;101207.03;;;13.28;100.00
41862;BME280;27537;57.134;-2.136;2023-10-09T07:30:18;101206.53;;;13.19;100.00
41862;BME280;27537;57.134;-2.136;2023-10-09T07:33:10;101218.88;;;13.17;100.00
41862;BME280;27537;57.134;-2.136;2023-10-09T07:35:48;101238.03;;;13.20;100.00
41862;BME280;27537;57.134;-2.136;2023-10-09T07:38:22;101229.28;;;13.20;100.00
41862;BME280;27537;57.134;-2.136;2023-10-09T07:40:51;101241.22;;;13.28;100.00
41862;BME280;27537;57.134;-2.136;2023-10-09T07:43:34;101235.09;;;13.28;100.00
41862;BME280;27537;57.134;-2.136;2023-10-09T07:49:01;101237.44;;;13.36;100.00
41862;BME280;27537;57.134;-2.136;2023-10-09T07:51:40;101242.44;;;13.42;100.00
41862;BME280;27537;57.134;-2.136;2023-10-09T07:54:11;101244.88;;;13.46;100.00
41862;BME280;27537;57.134;-2.136;2023-10-09T07:56:43;101254.34;;;13.51;100.00
41862;BME280;27537;57.134;-2.136;2023-10-09T07:59:14;101250.59;;;13.36;100.00
41862;BME280;27537;57.134;-2.136;2023-10-09T08:01:46;101241.66;;;13.40;100.00
41862;BME280;27537;57.134;-2.136;2023-10-09T08:04:23;101228.81;;;13.32;100.00
41862;BME280;27537;57.134;-2.136;2023-10-09T08:07:10;101238.94;;;13.41;100.00
41862;BME280;27537;57.134;-2.136;2023-10-09T08:10:08;101237.44;;;13.36;100.00
41862;BME280;27537;57.134;-2.136;2023-10-09T08:12:43;101233.69;;;13.41;100.00
41862;BME280;27537;57.134;-2.136;2023-10-09T08:15:13;101234.91;;;13.55;100.00
41862;BME280;27537;57.134;-2.136;2023-10-09T08:17:54;101239.97;;;13.59;100.00
41862;BME280;27537;57.134;-2.136;2023-10-09T08:20:22;101228.75;;;13.54;100.00
41862;BME280;27537;57.134;-2.136;2023-10-09T08:22:52;101240.06;;;13.56;100.00
41862;BME280;27537;57.134;-2.136;2023-10-09T08:25:23;101234.97;;;13.74;100.00
41862;BME280;27537;57.134;-2.136;2023-10-09T08:28:03;101242.19;;;13.68;100.00
41862;BME280;27537;57.134;-2.136;2023-10-09T08:30:58;101245.72;;;13.47;100.00
41862;BME280;27537;57.134;-2.136;2023-10-09T08:33:46;101241.09;;;13.74;100.00
41862;BME280;27537;57.134;-2.136;2023-10-09T08:36:25;101234.84;;;13.97;100.00
41862;BME280;27537;57.134;-2.136;2023-10-09T08:38:58;101242.66;;;14.38;100.00
41862;BME280;27537;57.134;-2.136;2023-10-09T08:41:25;101244.88;;;14.48;100.00
41862;BME280;27537;57.134;-2.136;2023-10-09T08:43:57;101235.34;;;14.45;100.00
41862;BME280;27537;57.134;-2.136;2023-10-09T08:46:26;101227.38;;;14.47;100.00
41862;BME280;27537;57.134;-2.136;2023-10-09T08:48:57;101223.66;;;14.51;100.00
41862;BME280;27537;57.134;-2.136;2023-10-09T08:51:26;101232.66;;;14.66;100.00
41862;BME280;27537;57.134;-2.136;2023-10-09T08:53:54;101227.75;;;14.77;100.00
41862;BME280;27537;57.134;-2.136;2023-10-09T08:56:22;101237.72;;;14.89;100.00
41862;BME280;27537;57.134;-2.136;2023-10-09T08:58:51;101232.31;;;14.73;100.00
41862;BME280;27537;57.134;-2.136;2023-10-09T09:01:18;101225.50;;;14.30;100.00
41862;BME280;27537;57.134;-2.136;2023-10-09T09:03:49;101233.72;;;14.61;100.00
41862;BME280;27537;57.134;-2.136;2023-10-09T09:06:19;101239.50;;;14.70;100.00
41862;BME280;27537;57.134;-2.136;2023-10-09T09:08:46;101240.03;;;14.38;100.00
41862;BME280;27537;57.134;-2.136;2023-10-09T09:11:16;101240.59;;;14.45;100.00
41862;BME280;27537;57.134;-2.136;2023-10-09T09:13:44;101239.47;;;14.51;100.00
41862;BME280;27537;57.134;-2.136;2023-10-09T09:16:24;101237.53;;;14.35;100.00
41862;BME280;27537;57.134;-2.136;2023-10-09T09:19:01;101239.91;;;14.60;100.00
41862;BME280;27537;57.134;-2.136;2023-10-09T09:21:59;101227.84;;;14.55;100.00
41862;BME280;27537;57.134;-2.136;2023-10-09T09:24:40;101241.59;;;14.42;100.00
41862;BME280;27537;57.134;-2.136;2023-10-09T09:27:12;101240.84;;;14.59;100.00
41862;BME280;27537;57.134;-2.136;2023-10-09T09:29:45;101219.47;;;14.47;100.00
41862;BME280;27537;57.134;-2.136;2023-10-09T09:32:30;101233.63;;;14.44;100.00
41862;BME280;27537;57.134;-2.136;2023-10-09T09:35:02;101239.06;;;14.60;100.00
41862;BME280;27537;57.134;-2.136;2023-10-09T09:37:33;101233.78;;;14.79;100.00
41862;BME280;27537;57.134;-2.136;2023-10-09T09:40:10;101229.50;;;14.76;100.00
41862;BME280;27537;57.134;-2.136;2023-10-09T09:43:02;101219.72;;;14.97;100.00
41862;BME280;27537;57.134;-2.136;2023-10-09T09:45:35;101208.00;;;15.03;100.00
41862;BME280;27537;57.134;-2.136;2023-10-09T09:48:03;101209.25;;;14.96;100.00
41862;BME280;27537;57.134;-2.136;2023-10-09T09:50:33;101202.34;;;14.93;100.00
41862;BME280;27537;57.134;-2.136;2023-10-09T09:53:03;101196.66;;;14.84;100.00
41862;BME280;27537;57.134;-2.136;2023-10-09T09:55:38;101203.66;;;14.85;100.00
41862;BME280;27537;57.134;-2.136;2023-10-09T09:58:13;101211.00;;;14.78;100.00
41862;BME280;27537;57.134;-2.136;2023-10-09T10:00:45;101214.78;;;14.72;100.00
41862;BME280;27537;57.134;-2.136;2023-10-09T10:03:26;101213.19;;;14.87;100.00
41862;BME280;27537;57.134;-2.136;2023-10-09T10:05:56;101218.88;;;14.97;100.00
41862;BME280;27537;57.134;-2.136;2023-10-09T10:08:24;101211.59;;;15.02;100.00
41862;BME280;27537;57.134;-2.136;2023-10-09T10:10:59;101204.59;;;15.01;100.00
41862;BME280;27537;57.134;-2.136;2023-10-09T10:16:09;101209.38;;;15.29;100.00
41862;BME280;27537;57.134;-2.136;2023-10-09T10:21:41;101216.97;;;15.18;100.00
41862;BME280;27537;57.134;-2.136;2023-10-09T10:35:21;101217.16;;;15.50;100.00
41862;BME280;27537;57.134;-2.136;2023-10-09T10:38:39;101220.03;;;15.45;100.00
41862;BME280;27537;57.134;-2.136;2023-10-09T10:41:17;101212.66;;;15.52;100.00
41862;BME280;27537;57.134;-2.136;2023-10-09T10:43:45;101211.88;;;15.50;100.00
41862;BME280;27537;57.134;-2.136;2023-10-09T10:46:22;101215.44;;;15.49;100.00
41862;BME280;27537;57.134;-2.136;2023-10-09T10:49:03;101204.81;;;15.50;100.00
41862;BME280;27537;57.134;-2.136;2023-10-09T10:51:42;101204.72;;;15.69;100.00
41862;BME280;27537;57.134;-2.136;2023-10-09T10:54:23;101183.94;;;15.81;100.00
41862;BME280;27537;57.134;-2.136;2023-10-09T10:57:20;101187.50;;;15.80;100.00
41862;BME280;27537;57.134;-2.136;2023-10-09T10:59:58;101174.59;;;15.73;100.00
41862;BME280;27537;57.134;-2.136;2023-10-09T11:02:39;101184.03;;;15.95;100.00
41862;BME280;27537;57.134;-2.136;2023-10-09T11:05:07;101176.69;;;15.67;100.00
41862;BME280;27537;57.134;-2.136;2023-10-09T11:07:57;101178.81;;;15.60;100.00
41862;BME280;27537;57.134;-2.136;2023-10-09T11:10:24;101168.00;;;15.82;100.00
41862;BME280;27537;57.134;-2.136;2023-10-09T11:12:58;101170.81;;;15.62;100.00
41862;BME280;27537;57.134;-2.136;2023-10-09T11:15:38;101170.97;;;15.76;100.00
41862;BME280;27537;57.134;-2.136;2023-10-09T11:18:15;101158.75;;;15.91;100.00
41862;BME280;27537;57.134;-2.136;2023-10-09T11:20:53;101161.53;;;15.88;100.00
41862;BME280;27537;57.134;-2.136;2023-10-09T11:23:24;101153.00;;;15.83;100.00
41862;BME280;27537;57.134;-2.136;2023-10-09T11:26:03;101156.47;;;16.01;100.00
41862;BME280;27537;57.134;-2.136;2023-10-09T11:32:05;101153.88;;;15.83;100.00
41862;BME280;27537;57.134;-2.136;2023-10-09T11:34:33;101146.50;;;16.22;100.00
41862;BME280;27537;57.134;-2.136;2023-10-09T11:37:04;101151.72;;;16.39;100.00
41862;BME280;27537;57.134;-2.136;2023-10-09T11:39:38;101138.91;;;16.79;100.00
41862;BME280;27537;57.134;-2.136;2023-10-09T11:42:25;101146.41;;;17.03;100.00
41862;BME280;27537;57.134;-2.136;2023-10-09T11:45:25;101145.66;;;16.85;100.00
41862;BME280;27537;57.134;-2.136;2023-10-09T11:47:58;101140.97;;;16.74;100.00
41862;BME280;27537;57.134;-2.136;2023-10-09T11:50:46;101142.31;;;16.81;100.00
41862;BME280;27537;57.134;-2.136;2023-10-09T11:53:43;101122.72;;;16.69;100.00
41862;BME280;27537;57.134;-2.136;2023-10-09T11:56:11;101121.88;;;16.69;100.00
41862;BME280;27537;57.134;-2.136;2023-10-09T11:58:43;101138.78;;;16.66;100.00
41862;BME280;27537;57.134;-2.136;2023-10-09T12:01:13;101140.63;;;16.80;100.00
41862;BME280;27537;57.134;-2.136;2023-10-09T12:03:44;101130.41;;;16.74;100.00
41862;BME280;27537;57.134;-2.136;2023-10-09T12:06:17;101134.25;;;16.84;100.00
41862;BME280;27537;57.134;-2.136;2023-10-09T12:08:49;101125.78;;;16.78;100.00
41862;BME280;27537;57.134;-2.136;2023-10-09T12:11:16;101120.94;;;16.70;100.00
41862;BME280;27537;57.134;-2.136;2023-10-09T12:13:51;101122.31;;;16.61;100.00
41862;BME280;27537;57.134;-2.136;2023-10-09T12:16:24;101135.09;;;16.53;100.00
41862;BME280;27537;57.134;-2.136;2023-10-09T12:18:55;101115.47;;;16.57;100.00
41862;BME280;27537;57.134;-2.136;2023-10-09T12:21:23;101122.47;;;16.74;100.00
41862;BME280;27537;57.134;-2.136;2023-10-09T12:23:50;101115.47;;;16.57;100.00
41862;BME280;27537;57.134;-2.136;2023-10-09T12:26:16;101118.56;;;16.49;100.00
41862;BME280;27537;57.134;-2.136;2023-10-09T12:28:44;101109.88;;;16.47;100.00
41862;BME280;27537;57.134;-2.136;2023-10-09T12:31:13;101104.66;;;16.46;100.00
41862;BME280;27537;57.134;-2.136;2023-10-09T12:33:47;101107.47;;;16.59;100.00
41862;BME280;27537;57.134;-2.136;2023-10-09T12:36:14;101098.09;;;16.53;100.00
41862;BME280;27537;57.134;-2.136;2023-10-09T12:38:47;101094.72;;;16.35;100.00
41862;BME280;27537;57.134;-2.136;2023-10-09T12:41:20;101095.75;;;16.48;100.00
41862;BME280;27537;57.134;-2.136;2023-10-09T12:44:00;101091.28;;;16.49;100.00
41862;BME280;27537;57.134;-2.136;2023-10-09T12:46:27;101087.97;;;16.45;100.00
41862;BME280;27537;57.134;-2.136;2023-10-09T12:48:55;101074.63;;;16.17;100.00
41862;BME280;27537;57.134;-2.136;2023-10-09T12:51:22;101088.13;;;15.94;100.00
41862;BME280;27537;57.134;-2.136;2023-10-09T12:53:57;101078.75;;;15.89;100.00
41862;BME280;27537;57.134;-2.136;2023-10-09T12:56:24;101083.38;;;15.68;100.00
41862;BME280;27537;57.134;-2.136;2023-10-09T12:59:00;101095.44;;;15.05;100.00
41862;BME280;27537;57.134;-2.136;2023-10-09T13:01:28;101093.22;;;14.96;100.00
41862;BME280;27537;57.134;-2.136;2023-10-09T13:04:13;101094.25;;;15.11;100.00
41862;BME280;27537;57.134;-2.136;2023-10-09T13:06:45;101099.28;;;15.15;100.00
41862;BME280;27537;57.134;-2.136;2023-10-09T13:09:17;101087.25;;;15.10;100.00
41862;BME280;27537;57.134;-2.136;2023-10-09T13:12:09;101093.84;;;15.01;100.00
41862;BME280;27537;57.134;-2.136;2023-10-09T13:14:45;101076.00;;;14.89;100.00
41862;BME280;27537;57.134;-2.136;2023-10-09T13:17:13;101093.41;;;14.93;100.00
41862;BME280;27537;57.134;-2.136;2023-10-09T13:19:40;101081.28;;;14.89;100.00
41862;BME280;27537;57.134;-2.136;2023-10-09T13:22:07;101085.03;;;14.85;100.00
41862;BME280;27537;57.134;-2.136;2023-10-09T13:24:40;101090.44;;;14.81;100.00
41862;BME280;27537;57.134;-2.136;2023-10-09T13:27:08;101088.81;;;14.79;100.00
41862;BME280;27537;57.134;-2.136;2023-10-09T13:29:37;101080.44;;;14.88;100.00
41862;BME280;27537;57.134;-2.136;2023-10-09T13:32:07;101077.75;;;14.90;100.00
41862;BME280;27537;57.134;-2.136;2023-10-09T13:34:42;101074.78;;;14.78;100.00
41862;BME280;27537;57.134;-2.136;2023-10-09T13:37:12;101073.81;;;14.62;100.00